Time;durP1;ratioP1;P1;durP2;ratioP2;P2;SDS_P1;SDS_P2;PMS_P1;PMS_P2;Temp;Humidity;BMP_temperature;BMP_pressure;BME280_temperature;BME280_humidity;BME280_pressure;Samples;Min_cycle;Max_cycle;Signal;HPM_P1;HPM_P2
2022/08/06 00:00:29;;;;;;;3.17;1.45;;;14.80;72.90;;;;;;5053007;28;20362;-38
2022/08/06 00:02:55;;;;;;;3.38;1.65;;;14.80;72.80;;;;;;5052154;28;20025;-38
2022/08/06 00:05:20;;;;;;;2.25;1.38;;;14.70;73.40;;;;;;5053560;28;20025;-38
2022/08/06 00:07:46;;;;;;;4.90;1.85;;;14.60;74.10;;;;;;5053408;28;20108;-39
2022/08/06 00:10:13;;;;;;;4.22;1.40;;;14.50;74.30;;;;;;5053386;28;20036;-39
2022/08/06 00:12:38;;;;;;;1.83;1.20;;;14.50;74.60;;;;;;5054173;28;20540;-39
2022/08/06 00:15:05;;;;;;;7.97;2.55;;;14.50;74.90;;;;;;5053885;28;20123;-39
2022/08/06 00:17:31;;;;;;;7.90;1.88;;;14.50;74.90;;;;;;5054236;28;20171;-38
2022/08/06 00:19:57;;;;;;;4.85;1.90;;;14.50;74.70;;;;;;5054019;28;20029;-40
2022/08/06 00:22:23;;;;;;;4.70;1.70;;;14.50;74.30;;;;;;5057041;28;20449;-39
2022/08/06 00:24:48;;;;;;;5.55;1.65;;;14.50;74.30;;;;;;5058006;28;20055;-44
2022/08/06 00:27:14;;;;;;;3.13;1.83;;;14.60;74.10;;;;;;5058420;28;20064;-39
2022/08/06 00:29:40;;;;;;;3.03;1.48;;;14.70;73.80;;;;;;5057943;28;20051;-39
2022/08/06 00:32:06;;;;;;;4.63;2.10;;;14.70;73.80;;;;;;5057930;28;20071;-41
2022/08/06 00:34:31;;;;;;;7.78;3.10;;;14.80;73.60;;;;;;5056676;28;20071;-40
2022/08/06 00:36:57;;;;;;;2.58;2.33;;;14.70;73.50;;;;;;5058807;28;20021;-45
2022/08/06 00:39:23;;;;;;;6.68;2.40;;;14.70;73.40;;;;;;5059108;28;20025;-41
2022/08/06 00:41:48;;;;;;;2.92;1.98;;;14.70;73.20;;;;;;5057677;28;20025;-40
2022/08/06 00:44:14;;;;;;;5.70;1.70;;;14.70;73.50;;;;;;5057060;28;20017;-39
2022/08/06 00:46:41;;;;;;;3.33;1.65;;;14.70;73.40;;;;;;5057106;28;20076;-40
2022/08/06 00:49:07;;;;;;;2.13;1.92;;;14.60;73.60;;;;;;5056612;28;20056;-39
2022/08/06 00:51:34;;;;;;;2.13;1.73;;;14.60;73.90;;;;;;5056091;28;20049;-39
2022/08/06 00:54:00;;;;;;;6.05;1.73;;;14.60;73.60;;;;;;5054530;28;20046;-38
2022/08/06 00:56:26;;;;;;;6.35;2.08;;;14.50;74.20;;;;;;5056022;28;20025;-38
2022/08/06 00:58:52;;;;;;;6.00;2.83;;;14.50;74.40;;;;;;5055986;28;20105;-39
2022/08/06 01:01:17;;;;;;;3.25;2.45;;;14.40;74.50;;;;;;5055655;28;20021;-39
2022/08/06 01:03:46;;;;;;;3.80;2.90;;;14.40;74.70;;;;;;5055751;28;20021;-39
2022/08/06 01:06:12;;;;;;;6.32;1.90;;;14.30;74.90;;;;;;5054052;28;20107;-38
2022/08/06 01:08:38;;;;;;;4.97;1.40;;;14.20;75.60;;;;;;5055542;28;20078;-38
2022/08/06 01:11:04;;;;;;;2.72;1.90;;;14.20;75.80;;;;;;5055463;28;20024;-39
2022/08/06 01:13:29;;;;;;;6.13;1.75;;;14.20;75.80;;;;;;5055199;28;20381;-39
2022/08/06 01:16:05;;;;;;;1.95;1.58;;;14.20;76.00;;;;;;5055218;28;20032;-39
2022/08/06 01:18:39;;;;;;;6.70;2.00;;;14.10;76.00;;;;;;5055191;28;20547;-40
2022/08/06 01:21:32;;;;;;;6.55;2.00;;;14.20;75.50;;;;;;5055270;28;20024;-38
2022/08/06 01:24:19;;;;;;;3.83;1.83;;;14.20;75.50;;;;;;5055224;28;20021;-40
2022/08/06 01:27:03;;;;;;;2.92;1.67;;;14.20;74.90;;;;;;5055020;28;20029;-38
2022/08/06 01:29:36;;;;;;;2.25;2.05;;;14.20;74.90;;;;;;5053533;28;20025;-38
2022/08/06 01:32:11;;;;;;;4.68;1.60;;;14.20;74.90;;;;;;5055069;28;20052;-39
2022/08/06 01:34:55;;;;;;;2.67;1.77;;;14.20;74.70;;;;;;5053303;28;20091;-39
2022/08/06 01:37:35;;;;;;;6.22;3.35;;;14.20;74.30;;;;;;5054867;28;20032;-39
2022/08/06 01:40:05;;;;;;;7.97;1.92;;;14.30;74.20;;;;;;5054780;28;20032;-39
2022/08/06 01:42:32;;;;;;;1.80;1.70;;;14.20;74.20;;;;;;5054680;28;20496;-38
2022/08/06 01:45:03;;;;;;;3.03;1.48;;;14.10;74.50;;;;;;5055017;28;20025;-39
2022/08/06 01:47:31;;;;;;;1.85;1.42;;;14.10;74.30;;;;;;5055472;28;20032;-38
2022/08/06 01:50:02;;;;;;;2.25;1.40;;;14.10;74.50;;;;;;5054683;28;20028;-38
2022/08/06 01:52:32;;;;;;;9.95;1.70;;;14.10;74.60;;;;;;5054636;28;20108;-39
2022/08/06 01:54:59;;;;;;;6.72;2.22;;;14.00;74.60;;;;;;5054466;28;20017;-39
2022/08/06 01:57:29;;;;;;;1.92;1.42;;;14.00;74.60;;;;;;5054509;28;20027;-38
2022/08/06 01:59:56;;;;;;;6.75;2.00;;;14.00;74.60;;;;;;5055356;28;20484;-38
2022/08/06 02:02:26;;;;;;;2.10;1.35;;;14.10;74.20;;;;;;5054668;28;20534;-39
2022/08/06 02:04:55;;;;;;;3.78;1.50;;;14.10;74.30;;;;;;5054339;28;20025;-38
2022/08/06 02:07:25;;;;;;;6.00;1.73;;;14.00;74.40;;;;;;5054327;28;20025;-39
2022/08/06 02:09:53;;;;;;;6.90;1.75;;;13.90;74.90;;;;;;5054230;28;20052;-39
2022/08/06 02:12:23;;;;;;;4.13;1.25;;;13.80;75.10;;;;;;5054280;28;20033;-39
2022/08/06 02:14:52;;;;;;;5.68;1.70;;;13.70;75.60;;;;;;5053518;28;20027;-40
2022/08/06 02:17:21;;;;;;;4.93;2.45;;;13.60;75.70;;;;;;5054948;28;20529;-38
2022/08/06 02:19:50;;;;;;;7.38;2.08;;;13.60;76.10;;;;;;5054003;28;20044;-39
2022/08/06 02:22:17;;;;;;;3.22;1.65;;;13.60;76.00;;;;;;5053030;28;20032;-39
2022/08/06 02:24:45;;;;;;;3.75;1.48;;;13.60;76.20;;;;;;5053949;28;20025;-39
2022/08/06 02:27:12;;;;;;;2.95;1.30;;;13.60;76.50;;;;;;5053953;28;20104;-38
2022/08/06 02:29:40;;;;;;;6.85;1.63;;;13.50;76.50;;;;;;5054102;28;20032;-38
2022/08/06 02:32:06;;;;;;;5.93;2.28;;;13.60;76.20;;;;;;5053878;28;20021;-39
2022/08/06 02:34:31;;;;;;;5.57;1.83;;;13.50;76.10;;;;;;5054059;28;20086;-38
2022/08/06 02:37:05;;;;;;;3.13;1.50;;;13.60;76.20;;;;;;5053737;28;20033;-38
2022/08/06 02:39:49;;;;;;;2.88;1.52;;;13.40;76.70;;;;;;5053881;28;20021;-39
2022/08/06 02:42:19;;;;;;;4.80;2.20;;;13.40;77.10;;;;;;5054100;28;20461;-38
2022/08/06 02:45:08;;;;;;;5.03;2.00;;;13.30;77.50;;;;;;5053581;28;20094;-39
2022/08/06 02:47:43;;;;;;;3.13;1.67;;;13.30;78.00;;;;;;5053854;28;20377;-43
2022/08/06 02:50:13;;;;;;;3.55;1.77;;;13.20;78.30;;;;;;5053424;28;20021;-38
2022/08/06 02:52:46;;;;;;;4.00;1.73;;;13.10;78.70;;;;;;5052244;28;20032;-38
2022/08/06 02:55:19;;;;;;;7.78;2.70;;;12.90;79.00;;;;;;5052103;28;20055;-38
2022/08/06 02:57:59;;;;;;;6.45;2.15;;;12.90;79.30;;;;;;5053794;28;20021;-39
2022/08/06 03:00:25;;;;;;;;;;;12.90;79.30;;;;;;5054137;28;20453;-39
2022/08/06 03:02:57;;;;;;;8.38;3.35;;;12.80;79.10;;;;;;5053308;28;20447;-39
2022/08/06 03:05:25;;;;;;;2.90;2.67;;;12.80;79.90;;;;;;5053356;28;20078;-38
2022/08/06 03:07:52;;;;;;;3.60;2.35;;;12.60;80.50;;;;;;5053278;28;20156;-38
2022/08/06 03:10:22;;;;;;;2.65;2.15;;;12.50;80.80;;;;;;5053535;28;20032;-39
2022/08/06 03:12:49;;;;;;;3.28;2.50;;;12.60;81.00;;;;;;5053221;28;20036;-39
2022/08/06 03:15:17;;;;;;;7.43;2.17;;;12.50;81.20;;;;;;5053312;28;20021;-41
2022/08/06 03:17:44;;;;;;;5.78;2.25;;;12.50;81.10;;;;;;5052065;28;20025;-39
2022/08/06 03:20:12;;;;;;;3.97;2.10;;;12.50;81.20;;;;;;5053083;28;20025;-39
2022/08/06 03:22:39;;;;;;;3.25;2.17;;;12.50;81.40;;;;;;5052371;28;20021;-39
2022/08/06 03:25:07;;;;;;;2.17;1.98;;;12.50;81.50;;;;;;5053018;28;20103;-38
2022/08/06 03:27:35;;;;;;;4.68;2.30;;;12.50;81.30;;;;;;5053196;28;20119;-38
2022/08/06 03:30:01;;;;;;;5.72;3.17;;;12.70;81.40;;;;;;5051744;28;20445;-39
2022/08/06 03:32:27;;;;;;;8.15;2.67;;;12.70;80.90;;;;;;5051548;28;20111;-38
2022/08/06 03:34:53;;;;;;;5.10;2.20;;;12.70;80.90;;;;;;5052742;28;20135;-39
2022/08/06 03:37:20;;;;;;;6.95;2.00;;;12.70;80.90;;;;;;5052876;28;20025;-38
2022/08/06 03:39:49;;;;;;;6.18;2.05;;;12.70;80.90;;;;;;5052916;28;20029;-39
2022/08/06 03:42:15;;;;;;;5.93;2.30;;;12.70;80.80;;;;;;5052724;28;20052;-39
2022/08/06 19:32:46;;;;;;;1.23;1.10;;;19.20;51.80;;;;;;5111558;27;20474;-39
2022/08/06 19:35:12;;;;;;;3.30;1.33;;;19.20;52.00;;;;;;5111195;28;20020;-38
2022/08/06 19:37:37;;;;;;;1.70;1.08;;;19.20;52.00;;;;;;5111202;28;20020;-41
2022/08/06 19:42:48;;;;;;;4.43;1.20;;;19.20;52.20;;;;;;5111246;28;20518;-39
2022/08/06 19:45:14;;;;;;;4.22;1.85;;;19.10;52.50;;;;;;5110896;28;20024;-40
2022/08/06 19:47:40;;;;;;;2.20;1.60;;;19.10;52.70;;;;;;5109475;28;20032;-39
2022/08/06 19:50:06;;;;;;;3.53;1.08;;;19.00;52.90;;;;;;5110843;28;20077;-39
2022/08/06 19:52:31;;;;;;;1.92;1.27;;;19.00;53.10;;;;;;5110927;28;20038;-40
2022/08/06 19:54:57;;;;;;;1.83;1.33;;;18.90;53.30;;;;;;5110917;28;20069;-39
2022/08/06 19:57:24;;;;;;;2.80;1.60;;;18.80;53.60;;;;;;5111413;28;20031;-40
2022/08/06 19:59:51;;;;;;;1.77;1.20;;;18.80;53.90;;;;;;5110972;28;20024;-40
2022/08/06 20:02:17;;;;;;;7.75;2.63;;;18.80;54.00;;;;;;5110474;28;20028;-39
2022/08/06 20:04:44;;;;;;;5.57;2.45;;;18.70;54.30;;;;;;5110564;28;20024;-38
2022/08/06 20:07:10;;;;;;;3.65;1.80;;;18.60;54.60;;;;;;5110715;28;20028;-40
2022/08/06 20:09:36;;;;;;;2.42;1.65;;;18.60;54.80;;;;;;5110377;28;20027;-39
2022/08/06 20:12:02;;;;;;;4.72;2.00;;;18.50;55.10;;;;;;5111240;28;20050;-40
2022/08/06 20:14:28;;;;;;;5.07;2.00;;;18.50;55.20;;;;;;5110019;28;20027;-39
2022/08/06 20:16:53;;;;;;;5.28;2.33;;;18.40;55.40;;;;;;5110883;28;20016;-42
2022/08/06 20:19:22;;;;;;;5.22;1.90;;;18.40;55.60;;;;;;5111247;28;20429;-39
2022/08/06 20:21:47;;;;;;;9.25;3.33;;;18.30;55.80;;;;;;5110335;28;20102;-40
2022/08/06 20:24:13;;;;;;;3.70;1.70;;;18.30;56.00;;;;;;5110097;28;20419;-41
2022/08/06 20:26:39;;;;;;;2.80;1.73;;;18.30;56.20;;;;;;5108703;28;20072;-39
2022/08/06 20:29:06;;;;;;;6.07;2.05;;;18.30;56.40;;;;;;5110102;28;20042;-39
2022/08/06 20:31:32;;;;;;;5.45;2.00;;;18.20;56.50;;;;;;5110179;28;20461;-39
2022/08/06 20:34:02;;;;;;;3.88;2.20;;;18.20;56.70;;;;;;5109239;28;20016;-40
2022/08/06 20:36:29;;;;;;;4.63;1.98;;;18.20;56.80;;;;;;5110606;28;20026;-39
2022/08/06 20:38:55;;;;;;;7.00;3.03;;;18.10;56.90;;;;;;5110189;28;20557;-40
2022/08/06 20:41:21;;;;;;;6.00;2.47;;;18.10;57.10;;;;;;5110181;28;20024;-39
2022/08/06 20:43:47;;;;;;;3.80;1.70;;;18.00;57.30;;;;;;5098661;28;20038;-39
2022/08/06 20:46:12;;;;;;;6.82;3.28;;;18.00;57.60;;;;;;5096561;28;20445;-38
2022/08/06 20:48:38;;;;;;;6.55;2.17;;;17.90;57.90;;;;;;5096523;28;20020;-39
2022/08/06 20:51:04;;;;;;;2.50;1.48;;;17.90;58.00;;;;;;5096957;28;20028;-40
2022/08/06 20:53:31;;;;;;;3.78;1.50;;;17.80;58.20;;;;;;5096417;28;20056;-39
2022/08/06 20:55:57;;;;;;;4.10;1.45;;;17.80;58.40;;;;;;5096681;28;20099;-42
2022/08/06 20:58:23;;;;;;;4.90;1.90;;;17.80;58.60;;;;;;5094970;28;20396;-39
2022/08/06 21:00:49;;;;;;;1.95;1.75;;;17.70;58.80;;;;;;5096250;28;20031;-39
2022/08/06 21:03:14;;;;;;;3.28;1.60;;;17.60;59.10;;;;;;5096348;28;20024;-41
2022/08/06 21:05:42;;;;;;;3.33;1.67;;;17.70;59.20;;;;;;5095458;28;20032;-41
2022/08/06 21:08:08;;;;;;;6.57;1.90;;;17.60;59.40;;;;;;5096253;28;20515;-40
2022/08/06 21:10:34;;;;;;;2.47;1.48;;;17.60;59.40;;;;;;5096476;28;20108;-40
2022/08/06 21:13:02;;;;;;;2.70;1.77;;;17.50;59.70;;;;;;5094702;28;20020;-40
2022/08/06 21:15:28;;;;;;;2.60;1.83;;;17.50;59.70;;;;;;5095996;28;20036;-39
2022/08/06 21:17:54;;;;;;;4.25;1.55;;;17.50;59.90;;;;;;5094658;28;20379;-47
2022/08/06 21:20:19;;;;;;;19.10;1.88;;;17.40;60.00;;;;;;5095672;28;20459;-46
2022/08/06 21:22:45;;;;;;;3.30;1.63;;;17.40;60.20;;;;;;5095676;28;20115;-47
2022/08/06 21:25:11;;;;;;;5.13;1.70;;;17.40;60.30;;;;;;5095722;28;20490;-46
2022/08/06 21:27:46;;;;;;;4.80;2.47;;;17.30;60.40;;;;;;5095707;28;20344;-48
2022/08/06 21:30:21;;;;;;;4.65;2.50;;;17.30;60.60;;;;;;5095300;28;20024;-46
2022/08/06 21:32:53;;;;;;;3.40;1.92;;;17.30;60.70;;;;;;5095737;28;20134;-47
2022/08/06 21:35:20;;;;;;;2.92;1.85;;;17.30;60.80;;;;;;5095588;28;20020;-47
2022/08/06 21:37:46;;;;;;;2.95;1.60;;;17.30;60.90;;;;;;5095403;28;20050;-47
2022/08/06 21:40:13;;;;;;;6.43;1.70;;;17.30;60.90;;;;;;5095318;28;20024;-47
2022/08/06 21:42:40;;;;;;;2.15;1.80;;;17.20;61.10;;;;;;5094811;28;20036;-46
2022/08/06 21:45:06;;;;;;;4.47;1.85;;;17.20;61.30;;;;;;5094900;28;20035;-49
2022/08/06 21:47:32;;;;;;;4.15;2.13;;;17.20;61.30;;;;;;5094966;28;20038;-46
2022/08/06 21:49:58;;;;;;;4.50;2.47;;;17.10;61.60;;;;;;5093804;28;20530;-46
2022/08/06 21:52:24;;;;;;;2.15;1.73;;;17.10;61.70;;;;;;5094897;28;20024;-47
2022/08/06 21:54:51;;;;;;;3.53;2.45;;;17.10;61.70;;;;;;5093572;28;20108;-47
2022/08/06 21:57:17;;;;;;;4.00;2.13;;;17.00;61.90;;;;;;5094671;28;20059;-48
2022/08/06 21:59:43;;;;;;;2.00;1.80;;;17.00;61.70;;;;;;5094633;28;20039;-46
2022/08/06 22:02:09;;;;;;;4.05;2.38;;;17.10;61.70;;;;;;5094553;28;20024;-46
2022/08/06 22:04:35;;;;;;;3.78;2.78;;;17.10;61.70;;;;;;5094561;28;20491;-46
2022/08/06 22:07:01;;;;;;;6.57;2.92;;;17.00;61.60;;;;;;5095079;28;20384;-45
2022/08/06 22:09:27;;;;;;;6.45;2.30;;;17.00;61.50;;;;;;5094432;28;20031;-47
2022/08/06 22:11:52;;;;;;;4.90;2.95;;;17.00;61.40;;;;;;5094168;28;20111;-47
2022/08/06 22:14:18;;;;;;;2.72;2.17;;;17.00;61.40;;;;;;5094245;28;20138;-47
2022/08/06 22:16:44;;;;;;;6.70;2.22;;;17.00;61.30;;;;;;5094429;28;20032;-48
2022/08/06 22:19:10;;;;;;;3.83;1.80;;;17.00;61.50;;;;;;5094357;28;20047;-46
2022/08/06 22:21:36;;;;;;;4.72;2.28;;;16.90;61.60;;;;;;5094044;28;20468;-47
2022/08/06 22:24:02;;;;;;;3.05;2.13;;;16.90;61.70;;;;;;5094077;28;20059;-45
2022/08/06 22:26:27;;;;;;;6.00;2.08;;;16.90;61.60;;;;;;5094311;28;20114;-46
2022/08/06 22:28:53;;;;;;;2.00;1.55;;;16.90;61.60;;;;;;5093890;28;20067;-46
2022/08/06 22:31:19;;;;;;;2.58;2.10;;;16.90;61.60;;;;;;5093914;28;20081;-47
2022/08/06 22:33:45;;;;;;;2.17;1.40;;;16.80;62.00;;;;;;5092581;28;20020;-48
2022/08/06 22:36:11;;;;;;;2.78;1.67;;;16.80;61.90;;;;;;5094054;28;20111;-46
2022/08/06 22:38:37;;;;;;;2.80;1.52;;;16.80;61.80;;;;;;5093954;28;20024;-46
2022/08/06 22:41:02;;;;;;;3.13;2.08;;;16.80;61.80;;;;;;5094112;28;20024;-46
2022/08/06 22:43:28;;;;;;;2.10;1.38;;;16.80;61.90;;;;;;5093952;28;20030;-48
2022/08/06 22:45:54;;;;;;;4.85;1.75;;;16.80;62.10;;;;;;5093854;28;20498;-46
2022/08/06 22:48:19;;;;;;;5.82;2.40;;;16.70;62.20;;;;;;5093581;28;20532;-46
2022/08/06 22:50:48;;;;;;;2.17;1.50;;;16.70;62.40;;;;;;5092276;28;20024;-46
2022/08/06 22:53:13;;;;;;;2.97;1.70;;;16.60;62.60;;;;;;5092314;28;20027;-46
2022/08/06 22:55:39;;;;;;;4.95;1.80;;;16.60;62.80;;;;;;5093956;28;20059;-52
2022/08/06 22:58:06;;;;;;;2.75;1.23;;;16.70;62.90;;;;;;5093810;28;20027;-47
2022/08/06 23:00:33;;;;;;;2.45;2.08;;;16.60;63.20;;;;;;5093434;28;20042;-46
2022/08/06 23:02:59;;;;;;;2.75;1.92;;;16.50;63.50;;;;;;5093757;28;20024;-45
2022/08/06 23:05:25;;;;;;;2.30;1.83;;;16.50;63.70;;;;;;5093369;28;20539;-48
2022/08/06 23:07:51;;;;;;;2.38;1.83;;;16.40;63.90;;;;;;5092609;28;20052;-46
2022/08/06 23:10:16;;;;;;;5.50;2.30;;;16.30;64.00;;;;;;5093296;28;20063;-48
2022/08/06 23:12:43;;;;;;;3.67;2.20;;;16.40;64.20;;;;;;5093860;28;20034;-47
2022/08/06 23:15:12;;;;;;;2.72;1.58;;;16.30;64.40;;;;;;5093353;28;20107;-48
2022/08/06 23:17:38;;;;;;;4.50;2.35;;;16.30;64.50;;;;;;5093501;28;20028;-46
2022/08/06 23:20:06;;;;;;;2.45;1.98;;;16.30;64.40;;;;;;5093497;28;20561;-46
2022/08/06 23:22:32;;;;;;;4.78;1.85;;;16.30;64.30;;;;;;5093130;28;20054;-48
2022/08/06 23:24:58;;;;;;;4.60;1.80;;;16.30;64.10;;;;;;5093561;28;20039;-46
2022/08/06 23:27:23;;;;;;;4.03;2.20;;;16.20;63.90;;;;;;5093474;28;20032;-47
2022/08/06 23:29:49;;;;;;;2.60;1.70;;;16.20;63.80;;;;;;5093526;28;20384;-47
2022/08/06 23:32:15;;;;;;;3.78;1.50;;;16.30;63.70;;;;;;5092126;28;20044;-47
2022/08/06 23:34:41;;;;;;;4.88;1.73;;;16.20;63.80;;;;;;5091834;28;20049;-46
2022/08/06 23:37:07;;;;;;;2.75;1.85;;;16.20;64.20;;;;;;5091809;28;20123;-47
2022/08/06 23:39:33;;;;;;;5.13;2.30;;;16.20;65.10;;;;;;5093375;28;20020;-46
2022/08/06 23:41:59;;;;;;;2.47;1.75;;;16.20;66.00;;;;;;5092067;28;20031;-45
2022/08/06 23:44:26;;;;;;;6.30;3.53;;;16.10;66.80;;;;;;5092946;28;20020;-46
2022/08/06 23:46:53;;;;;;;5.60;3.28;;;16.10;67.60;;;;;;5093204;28;20103;-48
2022/08/06 23:49:19;;;;;;;4.55;2.97;;;16.00;68.10;;;;;;5093561;28;20035;-47
2022/08/06 23:51:47;;;;;;;3.88;2.70;;;15.90;68.90;;;;;;5093705;28;20048;-46
2022/08/06 23:54:13;;;;;;;5.47;2.85;;;15.70;69.50;;;;;;5092933;28;20050;-46
2022/08/06 23:56:39;;;;;;;3.85;2.45;;;15.50;70.30;;;;;;5093344;28;20028;-47
2022/08/06 23:59:05;;;;;;;3.97;2.40;;;15.30;70.80;;;;;;5092976;28;20487;-47
